createdAt,value
2023-03-12T00:00:25.001Z,23.12
2023-03-12T00:02:51.514Z,23.09
2023-03-12T00:05:17.878Z,23.03
2023-03-12T00:07:44.248Z,23.03
2023-03-12T00:10:10.959Z,23.01
2023-03-12T00:12:37.302Z,22.99
2023-03-12T00:15:03.785Z,22.95
2023-03-12T00:17:30.569Z,22.92
2023-03-12T00:19:56.895Z,22.90
2023-03-12T00:22:23.244Z,22.84
2023-03-12T00:24:56.008Z,22.81
2023-03-12T00:27:22.644Z,22.80
2023-03-12T00:29:49.038Z,22.75
2023-03-12T00:32:15.721Z,22.72
2023-03-12T00:34:42.344Z,22.69
2023-03-12T00:37:08.656Z,22.66
2023-03-12T00:39:34.987Z,22.66
2023-03-12T00:42:01.309Z,22.67
2023-03-12T00:44:27.634Z,22.69
2023-03-12T00:46:54.019Z,22.67
2023-03-12T00:49:20.335Z,22.67
2023-03-12T00:51:46.763Z,22.63
2023-03-12T00:54:13.087Z,22.58
2023-03-12T00:56:39.395Z,22.57
2023-03-12T00:59:05.747Z,22.55
2023-03-12T01:01:32.058Z,22.51
2023-03-12T01:03:59.755Z,22.45
2023-03-12T01:06:26.083Z,22.44
2023-03-12T01:08:52.489Z,22.40
2023-03-12T01:11:19.414Z,22.37
2023-03-12T01:13:45.746Z,22.35
2023-03-12T01:16:12.122Z,22.37
2023-03-12T01:18:38.475Z,22.39
2023-03-12T01:21:04.808Z,22.34
2023-03-12T01:23:31.141Z,22.35
2023-03-12T01:25:57.600Z,22.32
2023-03-12T01:28:24.209Z,22.28
2023-03-12T01:30:50.515Z,22.25
2023-03-12T01:33:16.835Z,22.24
2023-03-12T01:35:43.219Z,22.21
2023-03-12T01:38:11.832Z,22.18
2023-03-12T01:40:38.207Z,22.15
2023-03-12T01:43:23.567Z,22.14
2023-03-12T01:46:01.157Z,22.12
2023-03-12T01:48:28.112Z,22.09
2023-03-12T01:50:54.420Z,22.05
2023-03-12T01:53:20.756Z,22.07
2023-03-12T01:55:47.068Z,22.08
2023-03-12T01:58:13.388Z,22.06
2023-03-12T02:00:39.794Z,22.05
2023-03-12T02:03:06.472Z,22.01
2023-03-12T02:05:33.841Z,21.97
2023-03-12T02:08:00.194Z,21.95
2023-03-12T02:10:26.511Z,21.91
2023-03-12T02:12:52.820Z,21.90
2023-03-12T02:15:19.156Z,21.86
2023-03-12T02:17:45.586Z,21.84
2023-03-12T02:20:21.066Z,21.80
2023-03-12T02:22:49.511Z,21.77
2023-03-12T02:25:21.804Z,21.74
2023-03-12T02:27:48.129Z,21.75
2023-03-12T02:30:17.450Z,21.74
2023-03-12T02:32:43.753Z,21.74
2023-03-12T02:35:10.117Z,21.71
2023-03-12T02:37:36.443Z,21.71
2023-03-12T02:40:05.828Z,21.68
2023-03-12T02:42:32.144Z,21.68
2023-03-12T02:44:58.572Z,21.65
2023-03-12T02:47:25.232Z,21.62
2023-03-12T02:49:51.907Z,21.61
2023-03-12T02:52:18.264Z,21.58
2023-03-12T02:54:44.573Z,21.56
2023-03-12T02:57:10.875Z,21.54
2023-03-12T02:59:37.189Z,21.50
2023-03-12T03:02:04.381Z,21.48
2023-03-12T03:04:30.899Z,21.48
2023-03-12T03:06:57.526Z,21.49
2023-03-12T03:09:24.416Z,21.45
2023-03-12T03:11:50.781Z,21.44
2023-03-12T03:14:17.207Z,21.42
2023-03-12T03:16:43.517Z,21.39
2023-03-12T03:19:11.284Z,21.37
2023-03-12T03:21:37.601Z,21.35
2023-03-12T03:24:04.100Z,21.33
2023-03-12T03:26:30.407Z,21.30
2023-03-12T03:28:56.720Z,21.28
2023-03-12T03:31:23.221Z,21.21
2023-03-12T03:33:49.617Z,21.15
2023-03-12T03:36:16.017Z,21.14
2023-03-12T03:38:42.872Z,21.18
2023-03-12T03:41:09.180Z,21.21
2023-03-12T03:43:35.554Z,21.21
2023-03-12T03:46:02.950Z,21.20
2023-03-12T03:48:29.348Z,21.19
2023-03-12T03:50:59.324Z,21.17
2023-03-12T03:53:25.644Z,21.16
2023-03-12T03:55:51.960Z,21.13
2023-03-12T03:58:18.269Z,21.10
2023-03-12T04:00:45.214Z,21.07
2023-03-12T04:03:11.563Z,21.05
2023-03-12T04:05:38.107Z,21.03
2023-03-12T04:08:04.501Z,21.01
2023-03-12T04:10:30.813Z,20.97
2023-03-12T04:12:57.406Z,20.97
2023-03-12T04:15:24.096Z,20.96
2023-03-12T04:17:50.522Z,20.91
2023-03-12T04:20:16.912Z,20.92
2023-03-12T04:22:43.234Z,20.92
2023-03-12T04:25:09.562Z,20.91
2023-03-12T04:27:35.872Z,20.88
2023-03-12T04:30:02.250Z,20.88
2023-03-12T04:32:28.580Z,20.86
2023-03-12T04:34:55.253Z,20.84
2023-03-12T04:37:21.570Z,20.82
2023-03-12T04:39:47.890Z,20.79
2023-03-12T04:42:14.215Z,20.79
2023-03-12T04:44:41.031Z,20.77
2023-03-12T04:47:07.349Z,20.83
2023-03-12T04:49:33.727Z,20.88
2023-03-12T04:52:02.479Z,20.91
2023-03-12T04:54:28.824Z,20.90
2023-03-12T04:56:55.150Z,20.88
2023-03-12T04:59:21.470Z,20.86
2023-03-12T05:01:47.797Z,20.84
2023-03-12T05:04:14.201Z,20.82
2023-03-12T05:06:40.593Z,20.82
2023-03-12T05:09:06.972Z,20.78
2023-03-12T05:11:33.416Z,20.77
2023-03-12T05:13:59.732Z,20.74
2023-03-12T05:16:26.117Z,20.74
2023-03-12T05:18:52.456Z,20.73
2023-03-12T05:21:19.234Z,20.73
2023-03-12T05:23:45.549Z,20.71
2023-03-12T05:26:28.093Z,20.70
2023-03-12T05:28:54.435Z,20.68
2023-03-12T05:31:20.851Z,20.67
2023-03-12T05:33:47.209Z,20.61
2023-03-12T05:36:13.665Z,20.63
2023-03-12T05:38:40.044Z,20.63
2023-03-12T05:41:06.376Z,20.61
2023-03-12T05:43:32.724Z,20.62
2023-03-12T05:46:00.298Z,20.59
2023-03-12T05:48:26.688Z,20.59
2023-03-12T05:50:53.254Z,20.57
2023-03-12T05:53:19.711Z,20.61
2023-03-12T05:55:46.289Z,20.66
2023-03-12T05:58:12.598Z,20.70
2023-03-12T06:00:41.580Z,20.68
2023-03-12T06:03:08.149Z,20.70
2023-03-12T06:05:35.603Z,20.70
2023-03-12T06:08:01.979Z,20.66
2023-03-12T06:10:28.298Z,20.66
2023-03-12T06:12:54.673Z,20.67
2023-03-12T06:15:21.010Z,20.68
2023-03-12T06:17:47.325Z,20.70
2023-03-12T06:20:13.655Z,20.68
2023-03-12T06:22:39.960Z,20.68
2023-03-12T06:25:06.601Z,20.67
2023-03-12T06:27:32.975Z,20.68
2023-03-12T06:29:59.388Z,20.67
2023-03-12T06:32:26.140Z,20.71
2023-03-12T06:34:52.578Z,20.74
2023-03-12T06:37:18.894Z,20.73
2023-03-12T06:39:45.458Z,20.74
2023-03-12T06:42:13.036Z,20.68
2023-03-12T06:44:39.361Z,20.70
2023-03-12T06:47:05.751Z,20.68
2023-03-12T06:49:33.304Z,20.71
2023-03-12T06:51:59.668Z,20.71
2023-03-12T06:54:25.991Z,20.69
2023-03-12T06:56:52.307Z,20.68
2023-03-12T06:59:21.560Z,20.68
2023-03-12T07:01:48.326Z,20.64
2023-03-12T07:04:14.752Z,20.63
2023-03-12T07:06:41.087Z,20.63
2023-03-12T07:09:07.758Z,20.62
2023-03-12T07:11:34.086Z,20.61
2023-03-12T07:14:00.656Z,20.62
2023-03-12T07:16:27.301Z,20.61
2023-03-12T07:18:53.791Z,20.62
2023-03-12T07:21:23.639Z,20.61
2023-03-12T07:23:50.234Z,20.61
2023-03-12T07:26:16.559Z,20.58
2023-03-12T07:28:42.897Z,20.58
2023-03-12T07:31:09.261Z,20.60
2023-03-12T07:33:35.719Z,20.59
2023-03-12T07:36:02.912Z,20.60
2023-03-12T07:38:29.362Z,20.58
2023-03-12T07:40:56.294Z,20.57
2023-03-12T07:43:22.864Z,20.58
2023-03-12T07:45:49.668Z,20.59
2023-03-12T07:48:16.065Z,20.60
2023-03-12T07:50:42.870Z,20.57
2023-03-12T07:53:09.192Z,20.58
2023-03-12T07:55:35.604Z,20.58
2023-03-12T07:58:02.000Z,20.55
2023-03-12T08:00:28.642Z,20.51
2023-03-12T08:02:55.237Z,20.48
2023-03-12T08:05:24.699Z,20.62
2023-03-12T08:07:52.310Z,20.75
2023-03-12T08:10:18.716Z,20.83
2023-03-12T08:12:45.389Z,21.01
2023-03-12T08:15:12.671Z,21.17
2023-03-12T08:17:39.248Z,21.25
2023-03-12T08:20:09.318Z,21.33
2023-03-12T08:22:36.230Z,21.38
2023-03-12T08:25:03.919Z,21.44
2023-03-12T08:27:30.321Z,21.47
2023-03-12T08:29:56.635Z,21.47
2023-03-12T08:32:23.147Z,21.52
2023-03-12T08:34:49.548Z,21.56
2023-03-12T08:37:16.196Z,21.59
2023-03-12T08:39:43.241Z,21.59
2023-03-12T08:42:09.649Z,21.60
2023-03-12T08:44:35.949Z,21.64
2023-03-12T08:47:02.278Z,21.77
2023-03-12T08:49:28.602Z,21.85
2023-03-12T08:51:54.954Z,21.86
2023-03-12T08:54:21.284Z,21.89
2023-03-12T08:56:51.891Z,21.92
2023-03-12T08:59:18.847Z,21.90
2023-03-12T09:01:45.173Z,21.88
2023-03-12T09:04:11.543Z,21.88
2023-03-12T09:06:38.416Z,21.90
2023-03-12T09:09:05.195Z,21.90
2023-03-12T09:11:32.623Z,21.91
2023-03-12T09:14:33.462Z,21.91
2023-03-12T09:16:45.610Z,21.94
2023-03-12T09:19:11.944Z,21.95
2023-03-12T09:21:39.901Z,21.98
2023-03-12T09:24:06.633Z,21.99
2023-03-12T09:26:32.971Z,21.97
2023-03-12T09:28:59.280Z,21.92
2023-03-12T09:31:25.626Z,21.88
2023-03-12T09:33:52.073Z,21.81
2023-03-12T09:36:18.416Z,21.77
2023-03-12T09:38:44.735Z,21.75
2023-03-12T09:41:15.845Z,21.73
2023-03-12T09:43:44.292Z,21.71
2023-03-12T09:46:15.223Z,21.71
2023-03-12T09:48:41.803Z,21.76
2023-03-12T09:51:17.251Z,21.80
2023-03-12T09:53:51.729Z,21.90
2023-03-12T09:56:18.609Z,21.92
2023-03-12T09:58:48.108Z,21.88
2023-03-12T10:01:20.625Z,21.84
2023-03-12T10:03:50.878Z,21.75
2023-03-12T10:06:20.306Z,21.61
2023-03-12T10:08:55.860Z,21.58
2023-03-12T10:11:45.480Z,21.69
2023-03-12T10:14:23.943Z,21.78
2023-03-12T10:17:14.491Z,21.82
2023-03-12T10:19:50.041Z,21.77
2023-03-12T10:22:23.311Z,21.75
2023-03-12T10:24:56.140Z,21.73
2023-03-12T10:27:22.708Z,21.71
2023-03-12T10:29:49.022Z,21.77
2023-03-12T10:32:18.440Z,21.81
2023-03-12T10:35:03.279Z,21.87
2023-03-12T10:37:40.550Z,21.85
2023-03-12T10:40:06.967Z,21.85
2023-03-12T10:42:33.291Z,21.82
2023-03-12T10:45:05.836Z,21.78
2023-03-12T10:47:38.791Z,21.77
2023-03-12T10:50:18.865Z,21.71
2023-03-12T10:52:45.647Z,21.67
2023-03-12T10:55:21.238Z,21.63
2023-03-12T10:57:47.998Z,21.68
2023-03-12T11:00:18.738Z,21.75
2023-03-12T11:02:45.923Z,21.80
2023-03-12T11:05:19.682Z,21.85
2023-03-12T11:07:46.025Z,21.86
2023-03-12T11:10:14.515Z,21.85
2023-03-12T11:12:40.909Z,21.84
2023-03-12T11:15:20.635Z,21.82
2023-03-12T11:17:46.982Z,21.83
2023-03-12T11:20:24.934Z,21.77
2023-03-12T11:22:51.665Z,21.80
2023-03-12T11:25:24.851Z,21.85
2023-03-12T11:27:52.569Z,21.90
2023-03-12T11:30:21.943Z,21.89
2023-03-12T11:32:49.218Z,21.86
2023-03-12T11:35:16.464Z,21.80
2023-03-12T11:38:21.386Z,21.79
2023-03-12T11:40:50.389Z,21.75
2023-03-12T11:43:40.017Z,21.74
2023-03-12T11:46:26.918Z,21.69
2023-03-12T11:48:56.235Z,21.64
2023-03-12T11:51:31.626Z,21.62
2023-03-12T11:54:00.888Z,21.58
2023-03-12T11:56:30.744Z,21.52
2023-03-12T11:59:03.183Z,21.50
2023-03-12T12:01:29.432Z,21.48
2023-03-12T12:04:13.892Z,21.46
2023-03-12T12:06:58.933Z,21.43
2023-03-12T12:09:25.200Z,21.50
2023-03-12T12:11:54.561Z,21.51
2023-03-12T12:14:24.653Z,21.55
2023-03-12T12:17:09.815Z,21.68
2023-03-12T12:19:42.217Z,22.09
2023-03-12T12:22:23.868Z,22.50
2023-03-12T12:25:08.961Z,22.84
2023-03-12T12:27:41.075Z,23.08
2023-03-12T12:30:26.267Z,23.24
2023-03-12T12:32:56.069Z,23.45
2023-03-12T12:35:38.090Z,23.57
2023-03-12T12:38:04.435Z,23.61
2023-03-12T12:40:32.111Z,23.65
2023-03-12T12:43:04.567Z,23.73
2023-03-12T12:45:31.170Z,23.70
2023-03-12T12:47:57.550Z,23.71
2023-03-12T12:50:24.713Z,23.71
2023-03-12T12:52:53.035Z,23.74
2023-03-12T12:55:22.378Z,23.83
2023-03-12T12:57:58.022Z,23.73
2023-03-12T13:00:42.070Z,23.29
2023-03-12T13:03:12.093Z,23.20
2023-03-12T13:05:38.328Z,23.17
2023-03-12T13:08:05.170Z,23.15
2023-03-12T13:10:34.376Z,23.17
2023-03-12T13:13:04.163Z,23.15
2023-03-12T13:15:33.413Z,23.12
2023-03-12T13:17:59.681Z,23.13
2023-03-12T13:20:30.616Z,23.17
2023-03-12T13:22:56.868Z,23.19
2023-03-12T13:25:23.260Z,23.19
2023-03-12T13:27:50.410Z,23.18
2023-03-12T13:30:35.070Z,23.18
2023-03-12T13:33:01.790Z,23.15
2023-03-12T13:35:29.490Z,23.17
2023-03-12T13:37:55.979Z,23.15
2023-03-12T13:40:28.441Z,23.13
2023-03-12T13:43:09.944Z,23.13
2023-03-12T13:45:55.299Z,23.12
2023-03-12T13:48:21.688Z,23.09
2023-03-12T13:50:54.828Z,23.10
2023-03-12T13:53:24.824Z,23.13
2023-03-12T13:55:59.496Z,23.12
2023-03-12T13:58:26.548Z,23.09
2023-03-12T14:00:55.038Z,23.07
2023-03-12T14:03:41.673Z,23.04
2023-03-12T14:06:12.081Z,23.01
2023-03-12T14:08:47.505Z,23.00
2023-03-12T14:11:13.807Z,22.96
2023-03-12T14:13:59.015Z,22.91
2023-03-12T14:16:27.958Z,22.89
2023-03-12T14:18:54.360Z,22.87
2023-03-12T14:21:20.677Z,22.83
2023-03-12T14:23:54.583Z,22.82
2023-03-12T14:26:24.411Z,22.80
2023-03-12T14:29:10.995Z,22.78
2023-03-12T14:31:37.340Z,22.83
2023-03-12T14:34:16.014Z,22.87
2023-03-12T14:36:46.699Z,22.90
2023-03-12T14:39:19.541Z,22.87
2023-03-12T14:41:45.849Z,22.84
2023-03-12T14:44:20.184Z,22.83
2023-03-12T14:46:47.122Z,22.80
2023-03-12T14:49:19.558Z,22.76
2023-03-12T14:51:46.010Z,22.74
2023-03-12T14:54:19.336Z,22.70
2023-03-12T14:56:45.900Z,22.69
2023-03-12T14:59:21.454Z,22.67
2023-03-12T15:01:47.921Z,22.64
2023-03-12T15:04:18.870Z,22.64
2023-03-12T15:06:49.148Z,22.65
2023-03-12T15:09:18.955Z,22.66
2023-03-12T15:11:46.784Z,22.64
2023-03-12T15:14:14.367Z,22.59
2023-03-12T15:16:41.427Z,22.55
2023-03-12T15:19:09.363Z,22.50
2023-03-12T15:21:35.704Z,22.38
2023-03-12T15:24:02.506Z,22.52
2023-03-12T15:26:33.084Z,22.73
2023-03-12T15:29:00.189Z,22.88
2023-03-12T15:31:26.588Z,22.96
2023-03-12T15:34:03.047Z,23.05
2023-03-12T15:36:29.925Z,23.15
2023-03-12T15:39:05.505Z,23.19
2023-03-12T15:41:45.606Z,23.25
2023-03-12T15:44:13.128Z,23.36
2023-03-12T15:46:39.505Z,23.43
2023-03-12T15:49:05.906Z,23.47
2023-03-12T15:51:35.774Z,23.51
2023-03-12T15:54:03.243Z,23.51
2023-03-12T15:56:30.692Z,23.51
2023-03-12T15:59:01.098Z,23.52
2023-03-12T16:01:28.208Z,23.47
2023-03-12T16:03:54.822Z,23.50
2023-03-12T16:06:23.216Z,23.56
2023-03-12T16:08:56.016Z,23.62
2023-03-12T16:11:23.472Z,23.61
2023-03-12T16:13:50.267Z,23.60
2023-03-12T16:16:16.706Z,23.58
2023-03-12T16:18:43.134Z,23.57
2023-03-12T16:21:09.474Z,23.59
2023-03-12T16:23:35.835Z,23.60
2023-03-12T16:26:02.173Z,23.62
2023-03-12T16:28:28.513Z,23.60
2023-03-12T16:30:54.875Z,23.57
2023-03-12T16:33:22.007Z,23.57
2023-03-12T16:35:48.487Z,23.58
2023-03-12T16:38:14.834Z,23.55
2023-03-12T16:40:42.962Z,23.37
2023-03-12T16:43:13.906Z,23.30
2023-03-12T16:45:40.250Z,23.24
2023-03-12T16:48:07.062Z,23.18
2023-03-12T16:50:33.436Z,22.93
2023-03-12T16:52:59.896Z,22.99
2023-03-12T16:55:27.535Z,23.02
2023-03-12T16:58:02.958Z,23.11
2023-03-12T17:00:30.211Z,22.57
2023-03-12T17:02:57.963Z,22.67
2023-03-12T17:05:25.131Z,22.86
2023-03-12T17:07:51.519Z,23.02
2023-03-12T17:10:17.841Z,23.05
2023-03-12T17:12:44.210Z,23.07
2023-03-12T17:15:23.447Z,23.06
2023-03-12T17:17:49.762Z,23.03
2023-03-12T17:20:17.423Z,23.09
2023-03-12T17:22:44.030Z,23.14
2023-03-12T17:25:30.833Z,23.16
2023-03-12T17:27:57.345Z,23.21
2023-03-12T17:30:23.940Z,23.22
2023-03-12T17:32:50.484Z,23.21
2023-03-12T17:35:17.070Z,23.23
2023-03-12T17:37:43.371Z,23.34
2023-03-12T17:40:10.943Z,23.38
2023-03-12T17:42:37.714Z,23.48
2023-03-12T17:45:04.455Z,23.70
2023-03-12T17:47:31.125Z,23.93
2023-03-12T17:49:57.485Z,24.22
2023-03-12T17:52:23.881Z,24.47
2023-03-12T17:54:50.214Z,24.63
2023-03-12T17:57:16.518Z,24.66
2023-03-12T17:59:42.837Z,24.70
2023-03-12T18:02:12.650Z,24.74
2023-03-12T18:04:39.048Z,24.98
2023-03-12T18:07:05.448Z,25.03
2023-03-12T18:09:31.794Z,25.04
2023-03-12T18:11:58.129Z,25.11
2023-03-12T18:14:24.484Z,25.17
2023-03-12T18:16:50.814Z,25.28
2023-03-12T18:19:17.152Z,25.26
2023-03-12T18:21:43.494Z,25.19
2023-03-12T18:24:14.340Z,24.95
2023-03-12T18:26:41.160Z,24.87
2023-03-12T18:29:07.488Z,24.86
2023-03-12T18:31:33.910Z,24.85
2023-03-12T18:34:00.515Z,24.85
2023-03-12T18:36:26.815Z,24.83
2023-03-12T18:38:53.150Z,24.81
2023-03-12T18:41:19.589Z,24.82
2023-03-12T18:43:46.183Z,24.81
2023-03-12T18:46:13.026Z,24.81
2023-03-12T18:48:40.502Z,24.74
2023-03-12T18:51:07.733Z,24.86
2023-03-12T18:53:34.196Z,24.83
2023-03-12T18:56:00.590Z,24.79
2023-03-12T18:58:27.533Z,24.80
2023-03-12T19:00:54.149Z,24.85
2023-03-12T19:03:20.756Z,24.80
2023-03-12T19:05:47.705Z,24.78
2023-03-12T19:08:14.023Z,24.78
2023-03-12T19:10:40.871Z,24.77
2023-03-12T19:13:07.246Z,24.77
2023-03-12T19:15:35.782Z,24.70
2023-03-12T19:18:02.089Z,24.67
2023-03-12T19:20:28.432Z,24.67
2023-03-12T19:22:54.755Z,24.70
2023-03-12T19:25:21.090Z,24.67
2023-03-12T19:27:47.462Z,24.70
2023-03-12T19:30:13.913Z,24.68
2023-03-12T19:32:44.162Z,24.60
2023-03-12T19:35:11.069Z,24.58
2023-03-12T19:37:37.380Z,24.60
2023-03-12T19:40:05.810Z,24.48
2023-03-12T19:42:32.138Z,24.52
2023-03-12T19:44:58.548Z,24.50
2023-03-12T19:47:24.862Z,24.33
2023-03-12T19:49:51.460Z,24.37
2023-03-12T19:52:19.689Z,24.31
2023-03-12T19:54:54.619Z,24.32
2023-03-12T19:57:29.407Z,24.28
2023-03-12T19:59:55.985Z,24.17
2023-03-12T20:02:22.427Z,24.11
2023-03-12T20:04:48.836Z,24.10
2023-03-12T20:07:17.311Z,24.08
2023-03-12T20:09:43.637Z,24.04
2023-03-12T20:12:09.947Z,24.09
2023-03-12T20:14:36.279Z,24.08
2023-03-12T20:17:02.645Z,24.07
2023-03-12T20:19:28.993Z,24.09
2023-03-12T20:21:57.083Z,24.03
2023-03-12T20:24:23.407Z,24.09
2023-03-12T20:26:49.717Z,23.99
2023-03-12T20:29:16.041Z,23.95
2023-03-12T20:31:42.665Z,23.93
2023-03-12T20:34:09.145Z,23.88
2023-03-12T20:36:35.462Z,23.87
2023-03-12T20:39:01.790Z,23.87
2023-03-12T20:41:28.566Z,23.90
2023-03-12T20:43:55.200Z,23.93
2023-03-12T20:46:21.582Z,23.85
2023-03-12T20:48:47.956Z,23.71
2023-03-12T20:51:14.269Z,23.53
2023-03-12T20:53:40.593Z,23.60
2023-03-12T20:56:07.241Z,23.89
2023-03-12T20:58:33.556Z,24.19
2023-03-12T21:01:00.418Z,24.31
2023-03-12T21:03:26.762Z,24.41
2023-03-12T21:05:53.958Z,24.48
2023-03-12T21:08:20.314Z,24.60
2023-03-12T21:10:46.635Z,24.66
2023-03-12T21:13:12.949Z,24.74
2023-03-12T21:15:39.292Z,24.81
2023-03-12T21:18:05.614Z,24.84
2023-03-12T21:20:32.461Z,24.91
2023-03-12T21:22:58.829Z,24.99
2023-03-12T21:25:25.173Z,25.06
2023-03-12T21:27:52.014Z,25.14
2023-03-12T21:30:18.510Z,25.22
2023-03-12T21:32:44.924Z,25.22
2023-03-12T21:35:11.300Z,25.25
2023-03-12T21:37:37.618Z,25.26
2023-03-12T21:40:04.880Z,25.30
2023-03-12T21:42:32.536Z,25.32
2023-03-12T21:44:58.909Z,25.33
2023-03-12T21:47:25.480Z,25.36
2023-03-12T21:49:51.878Z,25.36
2023-03-12T21:52:18.179Z,25.39
2023-03-12T21:54:44.512Z,25.41
2023-03-12T21:57:11.102Z,25.38
2023-03-12T21:59:37.424Z,25.39
2023-03-12T22:02:03.884Z,25.42
2023-03-12T22:04:30.321Z,25.37
2023-03-12T22:06:56.695Z,25.33
2023-03-12T22:09:23.012Z,25.33
2023-03-12T22:11:49.566Z,25.02
2023-03-12T22:14:16.117Z,24.95
2023-03-12T22:16:42.441Z,25.16
2023-03-12T22:19:09.185Z,25.22
2023-03-12T22:21:35.705Z,25.23
2023-03-12T22:24:02.046Z,25.25
2023-03-12T22:26:28.421Z,25.25
2023-03-12T22:28:55.470Z,25.19
2023-03-12T22:31:22.405Z,25.20
2023-03-12T22:33:48.728Z,25.01
2023-03-12T22:36:17.999Z,24.93
2023-03-12T22:38:44.709Z,24.95
2023-03-12T22:41:24.301Z,24.94
2023-03-12T22:43:52.348Z,24.92
2023-03-12T22:46:19.171Z,24.91
2023-03-12T22:48:45.999Z,24.90
2023-03-12T22:51:12.330Z,24.87
2023-03-12T22:53:38.652Z,24.86
2023-03-12T22:56:05.747Z,24.80
2023-03-12T22:58:32.182Z,24.80
2023-03-12T23:00:59.238Z,24.79
2023-03-12T23:03:25.872Z,24.77
2023-03-12T23:05:52.202Z,24.73
2023-03-12T23:08:18.519Z,24.71
2023-03-12T23:10:50.414Z,24.72
2023-03-12T23:13:16.731Z,24.69
2023-03-12T23:15:43.066Z,24.66
2023-03-12T23:18:09.663Z,24.65
2023-03-12T23:20:35.993Z,24.62
2023-03-12T23:23:02.397Z,24.59
2023-03-12T23:25:28.720Z,24.55
2023-03-12T23:27:55.032Z,24.52
2023-03-12T23:30:21.372Z,24.49
2023-03-12T23:32:47.816Z,24.47
2023-03-12T23:35:14.550Z,24.47
2023-03-12T23:37:41.097Z,24.42
2023-03-12T23:40:10.577Z,24.40
2023-03-12T23:42:36.888Z,24.36
2023-03-12T23:45:03.253Z,24.34
2023-03-12T23:47:29.597Z,24.33
2023-03-12T23:49:55.938Z,24.30
2023-03-12T23:52:22.282Z,24.29
2023-03-12T23:54:48.898Z,24.27
2023-03-12T23:57:15.234Z,24.22
2023-03-12T23:59:41.562Z,24.22
